Time;durP1;ratioP1;P1;durP2;ratioP2;P2;SDS_P1;SDS_P2;PMS_P1;PMS_P2;Temp;Humidity;BMP_temperature;BMP_pressure;BME280_temperature;BME280_humidity;BME280_pressure;Samples;Min_cycle;Max_cycle;Signal;HPM_P1;HPM_P2
2022/10/14 00:00:31;;;;;;;20.00;15.50;;;12.90;99.90;;;;;;5085039;28;20508;-64
2022/10/14 00:02:57;;;;;;;19.63;15.10;;;13.00;99.90;;;;;;5073771;28;20461;-64
2022/10/14 00:05:26;;;;;;;25.70;17.27;;;13.00;99.90;;;;;;5073298;28;20460;-64
2022/10/14 00:07:52;;;;;;;20.67;15.93;;;12.90;99.90;;;;;;5073961;28;20436;-64
2022/10/14 00:10:19;;;;;;;22.07;16.23;;;13.00;99.90;;;;;;5073127;28;20462;-64
2022/10/14 00:12:46;;;;;;;21.03;15.37;;;13.00;99.90;;;;;;5073470;28;20435;-65
2022/10/14 00:15:14;;;;;;;21.17;16.83;;;13.00;99.90;;;;;;5073466;28;20478;-63
2022/10/14 00:17:40;;;;;;;20.40;15.53;;;12.90;99.90;;;;;;5073945;28;20934;-63
2022/10/14 00:20:08;;;;;;;20.50;15.60;;;13.00;99.90;;;;;;5073714;28;20443;-65
2022/10/14 00:22:36;;;;;;;22.70;16.17;;;13.00;99.90;;;;;;5073251;28;20935;-63
2022/10/14 00:25:04;;;;;;;22.57;16.30;;;12.90;99.90;;;;;;5075571;28;20466;-63
2022/10/14 00:27:30;;;;;;;23.90;15.33;;;13.00;99.90;;;;;;5079349;28;20443;-63
2022/10/14 00:29:57;;;;;;;19.40;15.13;;;13.00;99.90;;;;;;5079871;28;20453;-63
2022/10/14 00:32:24;;;;;;;18.97;14.37;;;13.00;99.90;;;;;;5078822;28;20503;-63
2022/10/14 00:34:51;;;;;;;18.00;14.57;;;13.00;99.90;;;;;;5079073;28;20485;-63
2022/10/14 00:37:17;;;;;;;18.00;14.93;;;13.00;99.90;;;;;;5079284;28;20457;-63
2022/10/14 00:39:45;;;;;;;20.43;14.73;;;13.00;99.90;;;;;;5079196;28;20449;-62
2022/10/14 00:42:13;;;;;;;25.83;18.20;;;13.00;99.90;;;;;;5079206;28;20459;-63
2022/10/14 00:45:01;;;;;;;27.87;17.17;;;12.90;99.90;;;;;;5079397;28;20462;-62
2022/10/14 00:47:28;;;;;;;19.73;15.47;;;13.00;99.90;;;;;;5080936;28;20432;-63
2022/10/14 00:49:56;;;;;;;19.20;14.30;;;13.00;99.90;;;;;;5083078;28;20439;-63
2022/10/14 00:52:23;;;;;;;23.50;15.80;;;13.00;99.90;;;;;;5085452;28;20443;-63
2022/10/14 00:54:56;;;;;;;21.37;15.00;;;12.90;99.90;;;;;;5085977;28;20482;-63
2022/10/14 00:57:24;;;;;;;27.73;15.60;;;12.90;99.90;;;;;;5084942;28;20518;-63
2022/10/14 00:59:52;;;;;;;25.07;17.00;;;12.90;99.90;;;;;;5084181;28;20443;-63
2022/10/14 01:02:19;;;;;;;20.60;15.70;;;12.90;99.90;;;;;;5079597;28;20546;-63
2022/10/14 01:04:46;;;;;;;22.73;16.30;;;12.90;99.90;;;;;;5076291;28;20463;-64
2022/10/14 01:07:24;;;;;;;27.63;15.60;;;12.90;99.90;;;;;;5076772;28;20439;-63
2022/10/14 01:10:00;;;;;;;23.30;18.67;;;12.90;99.90;;;;;;5076982;28;20470;-63
2022/10/14 01:12:36;;;;;;;24.03;18.53;;;12.80;99.90;;;;;;5076867;28;20431;-64
2022/10/14 01:15:12;;;;;;;22.00;16.57;;;12.80;99.90;;;;;;5076387;28;20494;-64
2022/10/14 01:17:48;;;;;;;21.90;14.23;;;12.80;99.90;;;;;;5076118;28;20521;-64
2022/10/14 01:20:39;;;;;;;23.10;16.47;;;12.80;99.90;;;;;;5075995;28;20903;-63
2022/10/14 01:23:30;;;;;;;23.10;16.70;;;12.80;99.90;;;;;;5076135;28;20899;-64
2022/10/14 01:26:12;;;;;;;20.10;15.50;;;12.80;99.90;;;;;;5078154;28;20428;-63
2022/10/14 01:28:46;;;;;;;21.53;15.47;;;12.90;99.90;;;;;;5080872;28;20429;-63
2022/10/14 01:31:20;;;;;;;24.93;15.67;;;12.90;99.90;;;;;;5080692;28;20436;-63
2022/10/14 01:33:51;;;;;;;19.40;15.93;;;12.90;99.90;;;;;;5081215;28;20478;-63
2022/10/14 01:36:23;;;;;;;21.53;15.90;;;12.90;99.90;;;;;;5080517;28;20943;-64
2022/10/14 01:38:55;;;;;;;18.50;15.03;;;12.90;99.90;;;;;;5075476;28;20428;-64
2022/10/14 01:41:26;;;;;;;23.40;17.87;;;12.90;99.90;;;;;;5075993;28;20435;-63
2022/10/14 01:43:55;;;;;;;20.93;15.70;;;12.90;99.90;;;;;;5075968;28;20470;-63
2022/10/14 01:46:25;;;;;;;23.60;18.10;;;12.90;99.90;;;;;;5075821;28;20440;-64
2022/10/14 01:48:56;;;;;;;24.17;17.03;;;12.90;99.90;;;;;;5075822;28;20450;-63
2022/10/14 01:51:29;;;;;;;27.60;17.00;;;12.90;99.90;;;;;;5076087;28;20440;-63
2022/10/14 01:53:59;;;;;;;22.50;16.77;;;13.00;99.90;;;;;;5076106;28;20459;-63
2022/10/14 01:56:28;;;;;;;27.17;16.57;;;12.90;99.90;;;;;;5076412;28;20452;-66
2022/10/14 01:58:56;;;;;;;27.87;18.10;;;12.90;99.90;;;;;;5076542;28;20454;-66
2022/10/14 02:01:24;;;;;;;21.40;16.20;;;13.00;99.90;;;;;;5076857;28;20442;-65
2022/10/14 02:03:51;;;;;;;24.97;18.20;;;12.90;99.90;;;;;;5075870;28;20475;-66
2022/10/14 02:06:24;;;;;;;21.60;16.10;;;12.90;99.90;;;;;;5076008;28;20447;-65
2022/10/14 02:09:02;;;;;;;22.27;18.27;;;13.00;99.90;;;;;;5075504;28;20462;-66
2022/10/14 02:11:36;;;;;;;22.20;17.10;;;13.00;99.90;;;;;;5075476;28;20899;-66
2022/10/14 02:14:12;;;;;;;23.70;17.67;;;13.00;99.90;;;;;;5075518;28;20463;-66
2022/10/14 02:16:43;;;;;;;24.87;17.20;;;13.00;99.90;;;;;;5075509;28;20474;-66
2022/10/14 02:19:24;;;;;;;22.70;17.57;;;13.00;99.90;;;;;;5075943;28;20439;-66
2022/10/14 02:21:57;;;;;;;22.23;17.27;;;13.00;99.90;;;;;;5075220;28;20923;-66
2022/10/14 02:24:29;;;;;;;23.73;16.70;;;13.10;99.90;;;;;;5076900;28;20652;-67
2022/10/14 02:26:59;;;;;;;20.77;15.70;;;13.00;99.90;;;;;;5077029;28;20432;-67
2022/10/14 02:29:29;;;;;;;20.30;14.80;;;13.00;99.90;;;;;;5075727;28;20431;-65
2022/10/14 02:31:59;;;;;;;21.90;15.70;;;13.00;99.90;;;;;;5075520;28;20443;-65
2022/10/14 02:34:26;;;;;;;21.07;15.40;;;13.00;99.90;;;;;;5075784;28;20463;-66
2022/10/14 02:36:54;;;;;;;24.10;16.00;;;13.00;99.90;;;;;;5075023;28;20481;-66
2022/10/14 02:39:27;;;;;;;23.07;15.97;;;13.00;99.90;;;;;;5076651;28;20446;-67
2022/10/14 02:41:54;;;;;;;21.93;15.60;;;13.00;99.90;;;;;;5075195;28;20420;-67
2022/10/14 02:44:21;;;;;;;19.50;14.93;;;13.00;99.90;;;;;;5074907;28;20474;-67
2022/10/14 02:46:48;;;;;;;20.87;16.57;;;13.00;99.90;;;;;;5074815;28;20807;-66
2022/10/14 02:49:17;;;;;;;20.87;15.13;;;13.00;99.90;;;;;;5073379;28;20450;-67
2022/10/14 02:51:44;;;;;;;23.37;15.53;;;13.10;99.90;;;;;;5074438;28;20513;-67
2022/10/14 02:54:11;;;;;;;20.00;14.70;;;13.10;99.90;;;;;;5074482;28;20462;-66
2022/10/14 02:56:37;;;;;;;19.67;14.80;;;13.10;99.90;;;;;;5074616;28;20478;-67
2022/10/14 02:59:04;;;;;;;26.03;18.23;;;13.10;99.90;;;;;;5073966;28;20439;-67
2022/10/14 03:01:31;;;;;;;23.83;15.33;;;13.00;99.90;;;;;;5074084;28;20959;-67
2022/10/14 03:03:58;;;;;;;21.73;15.97;;;13.00;99.90;;;;;;5074400;28;20471;-67
2022/10/14 03:06:27;;;;;;;22.60;17.27;;;13.00;99.90;;;;;;5074528;28;20440;-67
2022/10/14 03:08:54;;;;;;;24.53;17.87;;;13.00;99.90;;;;;;5073816;28;20455;-66
2022/10/14 03:11:20;;;;;;;21.77;17.43;;;13.00;99.90;;;;;;5074443;28;20447;-66
2022/10/14 03:13:47;;;;;;;21.63;15.47;;;13.00;99.90;;;;;;5074354;28;20470;-67
2022/10/14 03:16:14;;;;;;;24.30;17.07;;;13.00;99.90;;;;;;5074946;28;20479;-66
2022/10/14 03:18:41;;;;;;;23.10;16.23;;;13.10;99.90;;;;;;5075183;28;20443;-66
2022/10/14 03:21:07;;;;;;;23.50;16.53;;;13.10;99.90;;;;;;5074804;28;20808;-66
2022/10/14 03:23:35;;;;;;;23.30;15.80;;;13.00;99.90;;;;;;5074155;28;20991;-65
2022/10/14 03:26:11;;;;;;;22.40;16.37;;;13.10;99.90;;;;;;5075188;28;20924;-63
2022/10/14 03:28:38;;;;;;;21.37;17.73;;;13.10;99.90;;;;;;5074592;28;20450;-64
2022/10/14 03:31:05;;;;;;;29.27;17.87;;;13.10;99.90;;;;;;5074481;28;20443;-64
2022/10/14 03:33:32;;;;;;;22.73;17.17;;;13.10;99.90;;;;;;5074046;28;20463;-63
2022/10/14 03:35:59;;;;;;;22.93;16.57;;;13.10;99.90;;;;;;5074972;28;20475;-63
2022/10/14 03:38:26;;;;;;;22.63;16.23;;;13.10;99.90;;;;;;5076000;28;20451;-63
2022/10/14 03:40:54;;;;;;;27.40;17.50;;;13.10;99.90;;;;;;5076693;28;20849;-64
2022/10/14 03:43:21;;;;;;;23.33;17.80;;;13.10;99.90;;;;;;5076272;28;20447;-63
2022/10/14 03:45:48;;;;;;;27.30;19.10;;;13.00;99.90;;;;;;5076172;28;20439;-63
2022/10/14 03:48:15;;;;;;;25.70;18.60;;;13.00;99.90;;;;;;5074897;28;20447;-64
2022/10/14 03:50:41;;;;;;;24.97;16.07;;;13.00;99.90;;;;;;5074442;28;20443;-63
2022/10/14 03:53:08;;;;;;;25.90;18.13;;;13.00;99.90;;;;;;5073739;28;20443;-64
2022/10/14 03:55:35;;;;;;;24.97;18.00;;;13.00;99.90;;;;;;5073843;28;20974;-64
2022/10/14 03:58:03;;;;;;;22.17;17.73;;;13.00;99.90;;;;;;5074191;28;20439;-63
2022/10/14 04:00:30;;;;;;;22.17;16.60;;;13.00;99.90;;;;;;5073514;28;20449;-63
2022/10/14 04:02:57;;;;;;;26.90;17.70;;;13.00;99.90;;;;;;5074298;28;20498;-63
2022/10/14 04:05:23;;;;;;;25.70;17.40;;;13.00;99.90;;;;;;5059742;28;20468;-62
2022/10/14 04:10:23;;;;;;;26.60;18.90;;;12.90;99.90;;;;;;5090969;27;20630;-63
2022/10/14 04:12:50;;;;;;;29.40;19.03;;;12.90;99.90;;;;;;5092401;28;20443;-64
2022/10/14 04:15:17;;;;;;;29.07;19.67;;;12.90;99.90;;;;;;5090006;28;20470;-63
2022/10/14 04:17:44;;;;;;;28.80;19.47;;;13.00;99.90;;;;;;5084216;28;20445;-63
2022/10/14 04:20:11;;;;;;;26.77;18.70;;;13.00;99.90;;;;;;5088793;28;20447;-63
2022/10/14 04:22:37;;;;;;;25.63;19.47;;;13.00;99.90;;;;;;5089021;28;20439;-64
2022/10/14 04:25:05;;;;;;;23.10;17.30;;;13.00;99.90;;;;;;5071646;28;20813;-64
2022/10/14 04:27:33;;;;;;;24.60;19.07;;;13.00;99.90;;;;;;5069733;28;20446;-61
2022/10/14 04:30:00;;;;;;;27.07;19.00;;;13.00;99.90;;;;;;5069445;28;20463;-63
2022/10/14 04:32:27;;;;;;;26.23;19.07;;;13.00;99.90;;;;;;5067014;28;20491;-63
2022/10/14 04:34:55;;;;;;;25.53;18.23;;;13.00;99.90;;;;;;5069463;28;20975;-63
2022/10/14 04:37:21;;;;;;;24.97;18.37;;;12.80;99.90;;;;;;5069346;28;20452;-64
2022/10/14 04:39:48;;;;;;;26.20;18.43;;;12.80;99.90;;;;;;5068311;28;20454;-63
2022/10/14 04:42:15;;;;;;;27.73;19.57;;;12.70;99.90;;;;;;5067584;28;20818;-63
2022/10/14 04:44:43;;;;;;;25.03;19.93;;;12.60;99.90;;;;;;5069139;28;20463;-63
2022/10/14 04:47:10;;;;;;;24.00;19.03;;;12.60;99.90;;;;;;5069755;28;20446;-64
2022/10/14 04:49:37;;;;;;;27.70;19.80;;;12.60;99.90;;;;;;5068547;28;20479;-63
2022/10/14 04:52:03;;;;;;;29.83;19.03;;;12.50;99.90;;;;;;5069090;28;20448;-63
2022/10/14 04:54:30;;;;;;;24.77;18.30;;;12.50;99.90;;;;;;5063588;28;20463;-65
2022/10/14 04:56:57;;;;;;;26.60;19.10;;;12.50;99.90;;;;;;5067613;28;20444;-64
2022/10/14 04:59:24;;;;;;;32.30;21.00;;;12.50;99.90;;;;;;5070142;28;20438;-64
2022/10/14 05:01:52;;;;;;;28.00;20.90;;;12.40;99.90;;;;;;5068910;28;20475;-64
2022/10/14 05:04:19;;;;;;;27.77;20.50;;;12.40;99.90;;;;;;5069579;28;20573;-63
2022/10/14 05:06:45;;;;;;;26.00;19.40;;;12.30;99.90;;;;;;5069743;28;20444;-63
2022/10/14 05:09:12;;;;;;;28.77;20.60;;;12.30;99.90;;;;;;5069362;28;20483;-63
2022/10/14 05:11:39;;;;;;;29.10;20.60;;;12.20;99.90;;;;;;5068300;28;20443;-64
2022/10/14 05:14:06;;;;;;;29.57;20.60;;;12.20;99.90;;;;;;5069031;28;20574;-64
2022/10/14 05:16:32;;;;;;;29.30;20.93;;;12.10;99.90;;;;;;5069328;28;20446;-63
2022/10/14 05:19:01;;;;;;;27.47;19.60;;;12.10;99.90;;;;;;5069052;28;20439;-65
2022/10/14 05:21:27;;;;;;;28.30;19.53;;;12.00;99.90;;;;;;5057263;28;20448;-64
2022/10/14 05:23:54;;;;;;;36.93;21.30;;;11.90;99.90;;;;;;5055275;28;20471;-62
2022/10/14 05:26:21;;;;;;;32.40;21.70;;;11.90;99.90;;;;;;5055571;28;20448;-64
2022/10/14 05:28:47;;;;;;;32.70;22.03;;;11.80;99.90;;;;;;5055359;28;20482;-63
2022/10/14 05:31:14;;;;;;;31.67;22.30;;;11.70;99.90;;;;;;5054516;28;20448;-63
2022/10/14 05:33:41;;;;;;;30.83;20.73;;;11.70;99.90;;;;;;5055494;28;20472;-62
2022/10/14 05:36:10;;;;;;;32.73;22.07;;;11.70;99.90;;;;;;5055636;28;20448;-64
2022/10/14 05:38:36;;;;;;;42.53;24.50;;;11.80;99.90;;;;;;5055988;28;20444;-63
2022/10/14 05:41:04;;;;;;;37.27;22.97;;;11.80;99.90;;;;;;5055164;28;20452;-63
2022/10/14 05:43:31;;;;;;;39.60;23.60;;;11.80;99.90;;;;;;5055878;28;20822;-64
2022/10/14 05:45:57;;;;;;;39.07;23.70;;;11.90;99.90;;;;;;5054935;28;20843;-64
2022/10/14 05:48:24;;;;;;;44.73;23.23;;;11.90;99.90;;;;;;5055539;28;20444;-63
2022/10/14 05:50:51;;;;;;;36.90;24.03;;;11.90;99.90;;;;;;5056132;28;20448;-64
2022/10/14 05:53:19;;;;;;;40.57;25.87;;;11.90;99.90;;;;;;5056080;28;20456;-64
2022/10/14 05:55:46;;;;;;;39.60;24.57;;;12.00;99.90;;;;;;5056555;28;20838;-63
2022/10/14 05:58:12;;;;;;;34.23;23.20;;;12.00;99.90;;;;;;5056400;28;20932;-63
2022/10/14 06:00:39;;;;;;;36.53;22.90;;;12.00;99.90;;;;;;5057766;28;20440;-63
2022/10/14 06:03:06;;;;;;;36.83;22.67;;;12.10;99.90;;;;;;5058160;28;20453;-64
2022/10/14 06:05:37;;;;;;;37.20;23.43;;;12.10;99.90;;;;;;5058755;28;20468;-63
2022/10/14 06:08:04;;;;;;;36.97;22.20;;;12.10;99.90;;;;;;5058409;28;20449;-63
2022/10/14 06:10:34;;;;;;;35.87;23.70;;;12.10;99.90;;;;;;5057324;28;20487;-64
2022/10/14 06:13:00;;;;;;;40.40;23.70;;;12.20;99.90;;;;;;5056588;28;20452;-63
2022/10/14 06:15:27;;;;;;;33.60;23.87;;;12.30;99.90;;;;;;5056769;28;20460;-62
2022/10/14 06:17:54;;;;;;;40.73;26.33;;;12.30;99.90;;;;;;5057170;28;20813;-63
2022/10/14 06:20:21;;;;;;;35.87;23.53;;;12.40;99.90;;;;;;5056775;28;20451;-62
2022/10/14 06:22:48;;;;;;;33.97;21.67;;;12.50;99.90;;;;;;5056933;28;20824;-62
2022/10/14 06:25:15;;;;;;;45.73;22.87;;;12.50;99.90;;;;;;5055386;28;21021;-63
2022/10/14 06:27:43;;;;;;;33.37;22.87;;;12.50;99.90;;;;;;5054839;28;20519;-64
2022/10/14 06:30:11;;;;;;;34.97;23.07;;;12.60;99.90;;;;;;5055102;28;20476;-63
2022/10/14 06:32:38;;;;;;;39.87;22.30;;;12.60;99.90;;;;;;5053891;28;20955;-64
2022/10/14 06:35:06;;;;;;;32.93;22.20;;;12.70;99.90;;;;;;5054782;28;20464;-63
2022/10/14 06:37:33;;;;;;;37.57;22.30;;;12.70;99.90;;;;;;5054730;28;20448;-62
2022/10/14 06:40:00;;;;;;;36.10;23.57;;;12.70;99.90;;;;;;5054683;28;20440;-63
2022/10/14 06:42:26;;;;;;;34.33;22.30;;;12.80;99.90;;;;;;5054310;28;20452;-63
2022/10/14 06:44:55;;;;;;;31.23;21.50;;;12.80;99.90;;;;;;5054203;28;20471;-63
2022/10/14 06:47:21;;;;;;;32.33;20.40;;;12.90;99.90;;;;;;5053951;28;20454;-63
2022/10/14 06:49:48;;;;;;;38.50;22.67;;;12.90;99.90;;;;;;5054419;28;20476;-63
2022/10/14 06:52:15;;;;;;;33.43;22.67;;;13.00;99.90;;;;;;5054244;28;20955;-63
2022/10/14 06:54:42;;;;;;;36.43;22.87;;;13.00;99.90;;;;;;5054459;28;20817;-63
2022/10/14 06:57:08;;;;;;;33.60;22.97;;;13.10;99.90;;;;;;5054155;28;20444;-63
2022/10/14 06:59:37;;;;;;;40.37;24.00;;;13.10;99.90;;;;;;5054322;28;20436;-64
2022/10/14 07:02:06;;;;;;;33.53;22.43;;;13.20;99.90;;;;;;5055087;28;20497;-61
2022/10/14 07:04:33;;;;;;;34.67;22.53;;;13.20;99.90;;;;;;5055427;28;20468;-63
2022/10/14 07:06:59;;;;;;;34.87;22.07;;;13.30;99.90;;;;;;5055472;28;20455;-63
2022/10/14 07:09:26;;;;;;;35.10;22.00;;;13.30;99.90;;;;;;5054275;28;20488;-64
2022/10/14 07:11:53;;;;;;;35.40;21.97;;;13.40;99.90;;;;;;5054315;28;20444;-63
2022/10/14 07:14:20;;;;;;;34.13;22.37;;;13.40;99.90;;;;;;5054320;28;20464;-63
2022/10/14 07:16:47;;;;;;;39.07;25.60;;;13.50;99.90;;;;;;5053986;28;20956;-63
2022/10/14 07:19:15;;;;;;;34.60;22.87;;;13.60;99.90;;;;;;5054536;28;20893;-63
2022/10/14 07:21:45;;;;;;;34.63;22.60;;;13.70;99.90;;;;;;5055058;28;20506;-63
2022/10/14 07:24:12;;;;;;;43.10;24.53;;;13.70;99.90;;;;;;5054650;28;20559;-63
2022/10/14 07:26:39;;;;;;;39.10;24.03;;;13.80;99.90;;;;;;5053984;28;20451;-64
2022/10/14 07:29:06;;;;;;;33.17;22.27;;;13.80;99.90;;;;;;5054485;28;20444;-64
2022/10/14 07:31:34;;;;;;;39.57;24.60;;;13.80;99.90;;;;;;5066498;28;20448;-64
2022/10/14 07:34:01;;;;;;;36.07;23.00;;;13.80;99.90;;;;;;5060697;28;20466;-64
2022/10/14 07:36:30;;;;;;;38.77;23.63;;;13.80;99.90;;;;;;5056449;28;20444;-62
2022/10/14 07:38:57;;;;;;;40.70;24.77;;;13.90;99.90;;;;;;5054948;28;20495;-63
2022/10/14 07:41:25;;;;;;;42.30;23.43;;;13.90;99.90;;;;;;5062905;28;20447;-63
2022/10/14 07:43:54;;;;;;;34.67;22.13;;;14.10;99.90;;;;;;5066947;28;20468;-63
2022/10/14 07:46:28;;;;;;;38.70;22.77;;;14.10;99.90;;;;;;5068169;28;20450;-64
2022/10/14 07:48:55;;;;;;;40.17;25.57;;;14.20;99.90;;;;;;5064079;28;20440;-63
2022/10/14 07:51:22;;;;;;;37.90;24.27;;;14.20;99.90;;;;;;5061957;28;20480;-64
2022/10/14 07:53:51;;;;;;;39.07;23.53;;;14.30;99.90;;;;;;5062808;28;20472;-63
2022/10/14 07:56:18;;;;;;;35.30;22.17;;;14.20;99.90;;;;;;5058653;28;20454;-64
2022/10/14 07:58:45;;;;;;;37.17;23.37;;;14.20;99.90;;;;;;5060933;28;20437;-62
2022/10/14 08:01:14;;;;;;;35.70;23.73;;;14.20;99.90;;;;;;5061542;28;20440;-65
2022/10/14 08:03:41;;;;;;;34.43;23.80;;;14.20;99.90;;;;;;5062843;28;20466;-63
2022/10/14 08:06:08;;;;;;;38.27;24.70;;;14.30;99.90;;;;;;5063942;28;20558;-62
2022/10/14 08:08:35;;;;;;;39.70;24.77;;;14.30;99.90;;;;;;5064768;28;20452;-63
2022/10/14 08:11:05;;;;;;;38.60;23.53;;;14.40;99.90;;;;;;5062980;28;20484;-65
2022/10/14 08:13:33;;;;;;;38.40;22.97;;;14.40;99.90;;;;;;5062466;28;21794;-64
2022/10/14 08:16:00;;;;;;;37.00;23.03;;;14.60;99.90;;;;;;5064635;28;20932;-64
2022/10/14 08:18:26;;;;;;;38.93;24.27;;;14.80;99.90;;;;;;5064753;28;20436;-64
2022/10/14 08:20:53;;;;;;;34.30;22.37;;;15.00;99.90;;;;;;5064928;28;20436;-63
2022/10/14 08:23:20;;;;;;;32.93;23.10;;;15.20;99.90;;;;;;5061106;28;20531;-63
2022/10/14 08:25:48;;;;;;;32.10;21.90;;;15.30;99.90;;;;;;5060841;28;21012;-63
2022/10/14 08:28:17;;;;;;;32.60;19.40;;;15.40;99.90;;;;;;5060391;28;20797;-63
2022/10/14 08:30:44;;;;;;;34.77;21.93;;;15.40;99.90;;;;;;5059047;28;20482;-62
2022/10/14 08:33:11;;;;;;;32.33;20.50;;;15.60;99.90;;;;;;5057776;28;20452;-63
2022/10/14 08:35:38;;;;;;;32.77;20.70;;;15.60;99.90;;;;;;5056586;28;20536;-67
2022/10/14 08:38:05;;;;;;;36.90;21.07;;;15.70;99.90;;;;;;5057269;28;20444;-64
2022/10/14 08:40:41;;;;;;;38.53;22.20;;;15.80;99.90;;;;;;5056037;28;20440;-62
2022/10/14 08:43:21;;;;;;;34.53;21.50;;;16.00;99.90;;;;;;5055337;28;20439;-62
2022/10/14 08:45:53;;;;;;;32.33;21.87;;;16.10;99.90;;;;;;5053531;28;20435;-64
2022/10/14 08:48:24;;;;;;;34.00;20.80;;;16.10;99.90;;;;;;5054086;28;20451;-63
2022/10/14 08:50:56;;;;;;;34.20;21.60;;;16.20;99.90;;;;;;5054916;28;20543;-63
2022/10/14 08:53:29;;;;;;;32.20;20.70;;;16.40;99.90;;;;;;5055379;28;20429;-63
2022/10/14 08:56:00;;;;;;;31.47;20.07;;;16.60;99.90;;;;;;5056602;28;20458;-64
2022/10/14 08:58:33;;;;;;;22.87;16.27;;;16.70;99.90;;;;;;5059262;28;20817;-65
2022/10/14 09:01:04;;;;;;;20.13;15.97;;;16.80;99.90;;;;;;5058992;28;20428;-61
2022/10/14 09:03:32;;;;;;;20.13;15.17;;;16.90;99.90;;;;;;5058863;28;20894;-63
2022/10/14 09:06:02;;;;;;;16.90;12.97;;;16.90;99.90;;;;;;5060432;28;20443;-65
2022/10/14 09:08:34;;;;;;;15.87;12.47;;;17.00;99.90;;;;;;5060028;28;20459;-63
2022/10/14 09:11:01;;;;;;;15.00;12.53;;;17.20;99.90;;;;;;5065475;28;20480;-63
2022/10/14 09:13:34;;;;;;;15.30;12.20;;;17.30;99.90;;;;;;5060005;28;20443;-63
2022/10/14 09:16:06;;;;;;;15.60;11.10;;;17.40;99.90;;;;;;5059855;28;20439;-63
2022/10/14 09:18:38;;;;;;;13.63;10.40;;;17.40;99.90;;;;;;5059894;28;20427;-62
2022/10/14 09:21:23;;;;;;;12.30;10.10;;;17.30;99.90;;;;;;5059545;28;20429;-62
2022/10/14 09:23:57;;;;;;;11.93;9.20;;;17.20;99.90;;;;;;5059090;28;20468;-63
2022/10/14 09:28:53;;;;;;;9.20;7.90;;;17.40;99.90;;;;;;5055350;22;20948;-64
2022/10/14 09:31:20;;;;;;;9.40;7.60;;;17.70;99.90;;;;;;5036782;28;20574;-65
2022/10/14 09:33:47;;;;;;;7.77;7.07;;;18.00;99.90;;;;;;5036702;28;20453;-66
2022/10/14 09:36:17;;;;;;;8.10;7.03;;;18.20;99.90;;;;;;5035886;28;20445;-65
2022/10/14 09:38:44;;;;;;;7.83;7.00;;;18.40;99.90;;;;;;5036145;28;20885;-66
2022/10/14 09:41:15;;;;;;;7.10;6.40;;;18.50;99.90;;;;;;5036096;28;20830;-66
2022/10/14 09:44:17;;;;;;;6.87;6.17;;;18.50;99.90;;;;;;5035764;28;20472;-66
2022/10/14 09:46:48;;;;;;;8.13;6.90;;;18.40;99.90;;;;;;5035593;28;21859;-66
2022/10/14 09:49:18;;;;;;;8.13;7.10;;;18.30;99.90;;;;;;5036026;28;20454;-62
2022/10/14 09:51:45;;;;;;;8.23;5.83;;;18.00;99.90;;;;;;5035360;28;20484;-63
2022/10/14 09:54:23;;;;;;;11.50;5.50;;;17.90;99.90;;;;;;5035814;28;20455;-64
2022/10/14 09:56:57;;;;;;;7.17;5.73;;;17.70;99.90;;;;;;5035251;28;20979;-63
2022/10/14 09:59:25;;;;;;;8.73;5.40;;;17.70;99.90;;;;;;5035543;28;20443;-64
2022/10/14 10:01:55;;;;;;;5.40;4.80;;;17.80;99.90;;;;;;5035745;28;20785;-63
2022/10/14 10:04:32;;;;;;;5.23;4.20;;;18.00;99.90;;;;;;5036110;28;20441;-65
2022/10/14 10:07:00;;;;;;;4.30;3.90;;;18.30;99.90;;;;;;5036410;28;20464;-66
2022/10/14 10:09:27;;;;;;;4.80;4.23;;;18.60;99.90;;;;;;5036465;28;20449;-64
2022/10/14 10:11:55;;;;;;;5.30;4.80;;;18.70;99.20;;;;;;5035666;28;20481;-62
2022/10/14 10:14:25;;;;;;;5.77;4.30;;;18.80;98.60;;;;;;5034932;28;20445;-65
2022/10/14 10:17:11;;;;;;;3.70;3.40;;;19.00;97.90;;;;;;5035464;28;20995;-63
2022/10/14 10:19:41;;;;;;;3.63;3.07;;;19.20;96.90;;;;;;5037639;28;20433;-63
2022/10/14 10:22:21;;;;;;;2.97;2.67;;;19.40;96.20;;;;;;5037241;28;20847;-65
2022/10/14 10:27:51;;;;;;;3.03;2.50;;;19.40;95.10;;;;;;5032746;28;20468;-63
2022/10/14 10:30:26;;;;;;;2.40;2.20;;;19.30;94.50;;;;;;5035713;28;20484;-62
2022/10/14 10:33:01;;;;;;;2.93;2.60;;;19.40;94.10;;;;;;5038683;28;20829;-64
2022/10/14 10:35:35;;;;;;;2.73;2.30;;;19.40;93.50;;;;;;5035696;28;20434;-65
2022/10/14 10:38:10;;;;;;;2.73;2.47;;;19.50;93.00;;;;;;5035149;28;20480;-65
2022/10/14 10:40:47;;;;;;;2.30;2.10;;;19.40;92.70;;;;;;5034803;28;20429;-64
2022/10/14 10:43:38;;;;;;;3.10;2.60;;;19.20;92.60;;;;;;5034649;28;20437;-62
2022/10/14 10:46:15;;;;;;;2.70;2.47;;;19.20;92.70;;;;;;5035109;28;20437;-65
2022/10/14 10:48:47;;;;;;;2.53;2.23;;;19.20;92.70;;;;;;5035094;28;20473;-65
2022/10/14 10:51:21;;;;;;;3.30;2.27;;;19.30;92.70;;;;;;5035210;28;20465;-63
2022/10/14 10:54:06;;;;;;;4.57;2.60;;;19.40;92.40;;;;;;5035199;28;20519;-64
2022/10/14 10:56:41;;;;;;;2.10;1.90;;;19.40;92.40;;;;;;5035490;28;20449;-65
2022/10/14 10:59:42;;;;;;;3.00;2.57;;;19.40;92.00;;;;;;5035540;28;20428;-64
2022/10/14 11:02:46;;;;;;;2.60;2.23;;;19.60;91.50;;;;;;5034779;28;20429;-66
2022/10/14 11:05:18;;;;;;;2.60;2.10;;;19.70;91.00;;;;;;5032571;28;20985;-65
2022/10/14 11:13:45;;;;;;;2.67;1.90;;;19.90;90.00;;;;;;5034763;28;20476;-65
2022/10/14 11:16:22;;;;;;;3.37;2.40;;;19.90;90.00;;;;;;5034537;28;20476;-65
2022/10/14 11:18:59;;;;;;;2.83;2.53;;;20.00;89.50;;;;;;5034148;28;20449;-62
2022/10/14 11:21:36;;;;;;;2.83;1.53;;;20.00;88.50;;;;;;5039642;28;20460;-68
2022/10/14 11:24:11;;;;;;;4.27;1.60;;;20.00;87.90;;;;;;5034237;28;20421;-65
2022/10/14 11:26:48;;;;;;;2.70;2.00;;;20.00;87.50;;;;;;5034153;28;20478;-65
2022/10/14 11:29:29;;;;;;;3.23;2.20;;;19.90;87.10;;;;;;5033301;28;20465;-65
2022/10/14 11:32:03;;;;;;;1.90;1.70;;;19.80;87.00;;;;;;5034034;28;20511;-65
2022/10/14 11:34:42;;;;;;;2.67;2.37;;;19.80;87.30;;;;;;5034508;28;20516;-64
2022/10/14 11:37:20;;;;;;;2.00;1.80;;;19.90;87.10;;;;;;5034311;28;20478;-64
2022/10/14 11:39:49;;;;;;;1.93;1.73;;;20.10;86.50;;;;;;5034419;28;20437;-65
2022/10/14 11:42:37;;;;;;;3.87;1.87;;;20.30;85.40;;;;;;5034984;28;20448;-63
2022/10/14 11:45:29;;;;;;;2.50;2.30;;;20.50;84.90;;;;;;5033627;28;20439;-63
2022/10/14 11:48:04;;;;;;;1.83;1.67;;;20.50;83.20;;;;;;5034497;28;20476;-63
2022/10/14 11:50:39;;;;;;;2.30;2.00;;;20.40;83.40;;;;;;5035442;28;20438;-62
2022/10/14 11:53:13;;;;;;;1.83;1.70;;;20.30;83.30;;;;;;5035564;28;20513;-66
2022/10/14 11:55:46;;;;;;;2.17;1.70;;;20.20;83.80;;;;;;5036450;28;20435;-65
2022/10/14 11:58:17;;;;;;;2.10;1.60;;;20.10;83.50;;;;;;5037695;28;20565;-66
2022/10/14 12:01:13;;;;;;;2.47;2.00;;;20.10;83.60;;;;;;5035860;28;20461;-64
2022/10/14 12:03:57;;;;;;;1.77;1.57;;;20.10;83.50;;;;;;5041059;28;20472;-61
2022/10/14 12:06:33;;;;;;;2.30;1.53;;;20.10;83.40;;;;;;5036707;28;20431;-64
2022/10/14 12:09:04;;;;;;;1.40;1.30;;;20.00;83.20;;;;;;5035402;28;20794;-63
2022/10/14 12:11:35;;;;;;;1.67;1.57;;;20.00;83.10;;;;;;5035894;28;20477;-64
2022/10/14 12:14:09;;;;;;;1.60;1.30;;;19.80;82.70;;;;;;5038015;28;20482;-64
2022/10/14 12:16:40;;;;;;;2.13;1.63;;;19.70;83.30;;;;;;5037491;28;20438;-64
2022/10/14 12:19:10;;;;;;;1.63;1.10;;;19.50;83.60;;;;;;5036482;28;20438;-62
2022/10/14 12:21:47;;;;;;;2.60;1.57;;;19.30;84.00;;;;;;5035062;28;20448;-63
2022/10/14 12:24:17;;;;;;;1.73;1.53;;;19.10;84.80;;;;;;5033665;28;20816;-62
2022/10/14 12:26:50;;;;;;;2.30;1.77;;;18.90;85.60;;;;;;5033324;28;20451;-64
2022/10/14 12:29:20;;;;;;;2.13;1.90;;;18.90;86.60;;;;;;5036169;28;20441;-65
2022/10/14 12:31:51;;;;;;;2.57;1.73;;;19.00;87.10;;;;;;5045990;28;20516;-64
2022/10/14 12:34:31;;;;;;;2.97;1.70;;;19.10;87.10;;;;;;5040084;28;20450;-65
2022/10/14 12:36:59;;;;;;;2.13;1.53;;;19.20;86.70;;;;;;5047319;28;20473;-63
2022/10/14 12:39:33;;;;;;;1.43;1.27;;;19.20;86.40;;;;;;5038704;28;20826;-66
2022/10/14 12:42:02;;;;;;;1.83;1.33;;;19.10;86.70;;;;;;5037746;28;20487;-62
2022/10/14 12:44:36;;;;;;;2.10;1.40;;;19.00;87.00;;;;;;5041157;28;20445;-63
2022/10/14 12:47:05;;;;;;;1.60;1.50;;;19.00;87.00;;;;;;5037787;28;20475;-64
2022/10/14 12:49:33;;;;;;;2.10;1.47;;;18.90;87.40;;;;;;5038784;28;20445;-64
2022/10/14 12:52:04;;;;;;;1.90;1.70;;;18.90;87.60;;;;;;5037211;28;20477;-61
2022/10/14 12:54:32;;;;;;;1.73;1.50;;;18.80;87.60;;;;;;5038328;28;20520;-64
2022/10/14 12:57:02;;;;;;;1.83;1.40;;;18.70;87.80;;;;;;5037222;28;20496;-64
2022/10/14 12:59:32;;;;;;;1.60;1.50;;;18.60;88.00;;;;;;5036127;28;20452;-62
2022/10/14 13:02:03;;;;;;;2.87;1.77;;;18.60;88.60;;;;;;5036116;28;20437;-62